createdAt,value
2019-05-29T00:01:35.136Z,98840.89
2019-05-29T00:04:06.059Z,98845.89
2019-05-29T00:06:35.545Z,98849.23
2019-05-29T00:09:06.395Z,98846.83
2019-05-29T00:11:35.823Z,98849.70
2019-05-29T00:14:19.714Z,98853.00
2019-05-29T00:16:36.496Z,98855.20
2019-05-29T00:19:06.938Z,98855.66
2019-05-29T00:21:36.778Z,98853.28
2019-05-29T00:24:06.340Z,98856.62
2019-05-29T00:26:35.729Z,98853.78
2019-05-29T00:29:05.667Z,98860.57
2019-05-29T00:31:35.043Z,98857.91
2019-05-29T00:34:04.491Z,98864.32
2019-05-29T00:36:33.881Z,98873.94
2019-05-29T00:39:04.221Z,98870.52
2019-05-29T00:41:33.645Z,98871.87
2019-05-29T00:44:03.092Z,98875.95
2019-05-29T00:46:32.527Z,98878.61
2019-05-29T00:49:01.897Z,98876.52
2019-05-29T00:51:31.357Z,98889.25
2019-05-29T00:54:00.703Z,98883.29
2019-05-29T00:56:30.150Z,98883.29
2019-05-29T00:58:59.501Z,98887.56
2019-05-29T01:01:28.952Z,98896.28
2019-05-29T01:03:58.358Z,98896.66
2019-05-29T01:06:27.786Z,98903.72
2019-05-29T01:08:57.159Z,98908.83
2019-05-29T01:11:26.523Z,98903.63
2019-05-29T01:13:55.890Z,98904.75
2019-05-29T01:16:25.228Z,98910.66
2019-05-29T01:18:56.227Z,98908.64
2019-05-29T01:21:25.633Z,98912.23
2019-05-29T01:23:55.048Z,98908.84
2019-05-29T01:26:24.477Z,98915.13
2019-05-29T01:28:53.832Z,98914.05
2019-05-29T01:31:23.617Z,98917.42
2019-05-29T01:33:53.080Z,98920.08
2019-05-29T01:36:22.685Z,98922.38
2019-05-29T01:38:52.098Z,98922.38
2019-05-29T01:41:21.533Z,98934.16
2019-05-29T01:43:50.891Z,98933.95
2019-05-29T01:46:21.494Z,98933.63
2019-05-29T01:48:50.845Z,98930.28
2019-05-29T01:51:20.183Z,98928.55
2019-05-29T01:53:49.604Z,98931.41
2019-05-29T01:56:19.816Z,98933.20
2019-05-29T01:58:49.273Z,98938.20
2019-05-29T02:01:19.918Z,98937.64
2019-05-29T02:03:49.513Z,98940.80
2019-05-29T02:06:19.978Z,98945.11
2019-05-29T02:08:49.435Z,98936.31
2019-05-29T02:11:19.227Z,98947.72
2019-05-29T02:13:48.641Z,98945.60
2019-05-29T02:16:18.510Z,98944.83
2019-05-29T02:18:47.959Z,98951.80
2019-05-29T02:21:17.986Z,98953.66
2019-05-29T02:23:47.445Z,98953.56
2019-05-29T02:26:17.955Z,98956.37
2019-05-29T02:28:47.594Z,98955.98
2019-05-29T02:31:17.689Z,98956.20
2019-05-29T02:33:48.117Z,98964.64
2019-05-29T02:36:17.905Z,98969.45
2019-05-29T02:38:47.351Z,98963.87
2019-05-29T02:41:16.772Z,98968.91
2019-05-29T02:43:46.132Z,98973.52
2019-05-29T02:46:15.551Z,98968.39
2019-05-29T02:48:44.922Z,98973.92
2019-05-29T02:51:14.287Z,98977.21
2019-05-29T02:53:43.647Z,98974.06
2019-05-29T02:56:13.017Z,98975.44
2019-05-29T02:58:42.393Z,98983.55
2019-05-29T03:01:11.760Z,98987.03
2019-05-29T03:03:41.105Z,98992.25
2019-05-29T03:06:10.633Z,98984.80
2019-05-29T03:08:40.170Z,98992.28
2019-05-29T03:11:09.716Z,98995.88
2019-05-29T03:13:39.157Z,98993.03
2019-05-29T03:16:12.237Z,98997.63
2019-05-29T03:18:39.589Z,99001.73
2019-05-29T03:21:09.012Z,99002.98
2019-05-29T03:23:38.435Z,99006.38
2019-05-29T03:26:07.801Z,99006.45
2019-05-29T03:28:38.257Z,99009.77
2019-05-29T03:31:07.844Z,99019.23
2019-05-29T03:33:44.891Z,99026.73
2019-05-29T03:36:08.422Z,99025.58
2019-05-29T03:38:38.601Z,99027.69
2019-05-29T03:41:07.997Z,99031.34
2019-05-29T03:43:38.794Z,99034.36
2019-05-29T03:46:26.393Z,99036.79
2019-05-29T03:48:39.380Z,99036.58
2019-05-29T03:51:08.723Z,99040.23
2019-05-29T03:53:38.561Z,99045.97
2019-05-29T03:56:07.970Z,99045.97
2019-05-29T03:58:37.900Z,99058.22
2019-05-29T04:01:07.474Z,99058.22
2019-05-29T04:03:38.036Z,99059.55
2019-05-29T04:06:07.842Z,99052.34
2019-05-29T04:08:38.399Z,99058.83
2019-05-29T04:11:08.398Z,99058.83
2019-05-29T04:13:38.797Z,99058.48
2019-05-29T04:16:09.958Z,99065.17
2019-05-29T04:18:40.774Z,99066.78
2019-05-29T04:21:12.059Z,99065.53
2019-05-29T04:23:43.063Z,99063.75
2019-05-29T04:26:14.131Z,99057.77
2019-05-29T04:28:43.854Z,99064.66
2019-05-29T04:31:13.264Z,99060.50
2019-05-29T04:33:42.719Z,99063.02
2019-05-29T04:36:12.147Z,99065.17
2019-05-29T04:38:41.520Z,99070.89
2019-05-29T04:41:10.965Z,99077.88
2019-05-29T04:43:40.345Z,99076.17
2019-05-29T04:46:09.740Z,99077.33
2019-05-29T04:48:40.357Z,99077.73
2019-05-29T04:51:10.091Z,99082.22
2019-05-29T04:53:39.949Z,99091.22
2019-05-29T04:56:09.450Z,99095.17
2019-05-29T04:58:39.119Z,99094.14
2019-05-29T05:01:08.594Z,99100.25
2019-05-29T05:03:39.130Z,99098.58
2019-05-29T05:06:08.768Z,99098.88
2019-05-29T05:08:39.523Z,99097.50
2019-05-29T05:11:10.553Z,99104.58
2019-05-29T05:13:39.995Z,99111.82
2019-05-29T05:16:09.381Z,99110.21
2019-05-29T05:18:40.043Z,99093.95
2019-05-29T05:21:09.669Z,99096.63
2019-05-29T05:23:40.307Z,99093.67
2019-05-29T05:26:10.028Z,99100.30
2019-05-29T05:28:42.187Z,99100.30
2019-05-29T05:31:10.483Z,99098.23
2019-05-29T05:33:41.035Z,99098.23
2019-05-29T05:36:10.654Z,99102.30
2019-05-29T05:38:41.159Z,99098.06
2019-05-29T05:41:10.636Z,99098.39
2019-05-29T05:43:41.337Z,99103.25
2019-05-29T05:46:10.680Z,99103.64
2019-05-29T05:48:41.310Z,99103.64
2019-05-29T05:51:11.003Z,99104.73
2019-05-29T05:53:40.204Z,99095.88
2019-05-29T05:56:09.285Z,99092.95
2019-05-29T05:58:39.824Z,99093.19
2019-05-29T06:01:09.146Z,99093.19
2019-05-29T06:03:38.214Z,99099.20
2019-05-29T06:06:07.332Z,99102.89
2019-05-29T06:08:36.423Z,99099.86
2019-05-29T06:11:05.620Z,99101.14
2019-05-29T06:13:34.681Z,99109.36
2019-05-29T06:16:03.746Z,99110.53
2019-05-29T06:18:32.831Z,99117.33
2019-05-29T06:21:01.945Z,99123.28
2019-05-29T06:23:31.048Z,99127.14
2019-05-29T06:26:00.349Z,99126.95
2019-05-29T06:28:29.414Z,99132.95
2019-05-29T06:30:58.559Z,99126.95
2019-05-29T06:33:27.608Z,99129.45
2019-05-29T06:35:56.741Z,99126.04
2019-05-29T06:38:25.802Z,99125.70
2019-05-29T06:40:54.869Z,99127.84
2019-05-29T06:43:25.494Z,99122.64
2019-05-29T06:45:55.312Z,99124.95
2019-05-29T06:48:42.333Z,99121.40
2019-05-29T06:51:01.596Z,99123.79
2019-05-29T06:53:30.715Z,99121.47
2019-05-29T06:56:01.401Z,99126.14
2019-05-29T06:58:30.646Z,99128.16
2019-05-29T07:00:59.781Z,99121.77
2019-05-29T07:03:28.875Z,99122.42
2019-05-29T07:05:57.917Z,99128.38
2019-05-29T07:08:38.024Z,99120.73
2019-05-29T07:10:57.939Z,99121.48
2019-05-29T07:13:27.007Z,99120.28
2019-05-29T07:15:56.119Z,99126.75
2019-05-29T07:18:25.250Z,99124.28
2019-05-29T07:20:54.306Z,99127.53
2019-05-29T07:23:23.390Z,99129.00
2019-05-29T07:25:52.599Z,99123.04
2019-05-29T07:28:21.656Z,99124.66
2019-05-29T07:31:00.569Z,99122.83
2019-05-29T07:33:21.614Z,99129.09
2019-05-29T07:35:50.739Z,99122.61
2019-05-29T07:38:19.786Z,99125.48
2019-05-29T07:40:50.144Z,99132.33
2019-05-29T07:43:19.295Z,99121.62
2019-05-29T07:45:48.477Z,99123.83
2019-05-29T07:48:17.839Z,99123.23
2019-05-29T07:50:46.875Z,99119.59
2019-05-29T07:53:15.955Z,99116.33
2019-05-29T07:55:45.184Z,99121.41
2019-05-29T07:58:14.240Z,99116.87
2019-05-29T08:01:05.382Z,99108.84
2019-05-29T08:03:14.775Z,99115.30
2019-05-29T08:05:47.961Z,99118.88
2019-05-29T08:08:14.649Z,99115.30
2019-05-29T08:10:43.702Z,99111.31
2019-05-29T08:13:12.833Z,99108.09
2019-05-29T08:15:56.424Z,99110.37
2019-05-29T08:18:12.698Z,99110.66
2019-05-29T08:20:41.921Z,99115.16
2019-05-29T08:23:11.090Z,99111.48
2019-05-29T08:25:41.328Z,99118.11
2019-05-29T08:28:10.582Z,99118.88
2019-05-29T08:30:41.180Z,99111.66
2019-05-29T08:33:10.415Z,99111.16
2019-05-29T08:35:41.386Z,99105.84
2019-05-29T08:38:10.268Z,99106.84
2019-05-29T08:40:39.329Z,99102.00
2019-05-29T08:43:08.400Z,99116.45
2019-05-29T08:45:37.466Z,99111.57
2019-05-29T08:48:06.528Z,99112.91
2019-05-29T08:50:35.592Z,99110.72
2019-05-29T08:53:04.849Z,99108.79
2019-05-29T08:55:33.924Z,99111.75
2019-05-29T08:58:02.976Z,99110.25
2019-05-29T09:00:32.038Z,99114.35
2019-05-29T09:03:01.102Z,99105.64
2019-05-29T09:05:30.232Z,99104.02
2019-05-29T09:07:59.329Z,99101.66
2019-05-29T09:10:28.380Z,99094.07
2019-05-29T09:13:04.717Z,99093.20
2019-05-29T09:15:28.263Z,99104.55
2019-05-29T09:17:57.331Z,99099.42
2019-05-29T09:20:49.777Z,99100.72
2019-05-29T09:22:57.292Z,99100.63
2019-05-29T09:25:26.393Z,99095.86
2019-05-29T09:27:55.474Z,99096.70
2019-05-29T09:30:24.580Z,99099.27
2019-05-29T09:32:53.639Z,99093.97
2019-05-29T09:35:24.616Z,99095.11
2019-05-29T09:37:53.633Z,99098.64
2019-05-29T09:40:23.117Z,99095.43
2019-05-29T09:42:52.359Z,99087.57
2019-05-29T09:45:21.662Z,99087.09
2019-05-29T09:47:50.741Z,99086.30
2019-05-29T09:50:22.755Z,99079.52
2019-05-29T09:52:50.778Z,99076.98
2019-05-29T09:55:19.841Z,99083.92
2019-05-29T09:57:48.971Z,99079.95
2019-05-29T10:00:19.200Z,99072.94
2019-05-29T10:02:48.348Z,99077.94
2019-05-29T10:05:17.409Z,99077.48
2019-05-29T10:07:46.528Z,99069.18
2019-05-29T10:10:16.380Z,99070.99
2019-05-29T10:12:45.508Z,99068.55
2019-05-29T10:15:15.223Z,99063.61
2019-05-29T10:17:44.422Z,99063.37
2019-05-29T10:20:15.528Z,99058.43
2019-05-29T10:22:44.577Z,99062.59
2019-05-29T10:25:13.895Z,99060.53
2019-05-29T10:27:43.020Z,99065.02
2019-05-29T10:30:12.877Z,99060.50
2019-05-29T10:32:42.684Z,99061.87
2019-05-29T10:35:12.494Z,99062.11
2019-05-29T10:37:42.746Z,99057.89
2019-05-29T10:40:12.296Z,99055.41
2019-05-29T10:42:41.402Z,99050.04
2019-05-29T10:45:12.454Z,99052.36
2019-05-29T10:47:41.547Z,99040.11
2019-05-29T10:50:11.186Z,99045.28
2019-05-29T10:52:40.345Z,99039.80
2019-05-29T10:55:09.998Z,99038.65
2019-05-29T10:57:39.161Z,99030.07
2019-05-29T11:00:11.385Z,99030.00
2019-05-29T11:02:40.550Z,99035.11
2019-05-29T11:05:09.817Z,99024.55
2019-05-29T11:07:38.897Z,99029.48
2019-05-29T11:10:13.408Z,99027.73
2019-05-29T11:12:41.393Z,99021.28
2019-05-29T11:15:20.859Z,99026.80
2019-05-29T11:17:41.628Z,99014.73
2019-05-29T11:20:12.719Z,99013.05
2019-05-29T11:22:41.770Z,99001.19
2019-05-29T11:25:23.348Z,99001.64
2019-05-29T11:27:41.912Z,99009.59
2019-05-29T11:30:12.724Z,99003.70
2019-05-29T11:32:41.937Z,98988.45
2019-05-29T11:35:12.008Z,98988.09
2019-05-29T11:37:41.059Z,98996.72
2019-05-29T11:40:10.787Z,98991.79
2019-05-29T11:42:39.840Z,98996.39
2019-05-29T11:45:10.976Z,98984.30
2019-05-29T11:47:40.067Z,98991.55
2019-05-29T11:50:19.607Z,98988.31
2019-05-29T11:52:44.609Z,98975.77
2019-05-29T11:55:13.928Z,98965.83
2019-05-29T11:57:43.050Z,98979.96
2019-05-29T12:00:20.452Z,98968.80
2019-05-29T12:02:45.455Z,98964.13
2019-05-29T12:05:15.205Z,98972.14
2019-05-29T12:07:44.281Z,98969.28
2019-05-29T12:10:13.743Z,98959.33
2019-05-29T12:12:42.902Z,98959.88
2019-05-29T12:15:17.055Z,98954.72
2019-05-29T12:17:45.094Z,98960.98
2019-05-29T12:20:27.000Z,98952.20
2019-05-29T12:23:11.405Z,98950.33
2019-05-29T12:25:16.469Z,98946.80
2019-05-29T12:27:45.598Z,98950.05
2019-05-29T12:30:16.403Z,98937.12
2019-05-29T12:32:46.110Z,98935.45
2019-05-29T12:35:15.511Z,98934.10
2019-05-29T12:37:44.554Z,98935.02
2019-05-29T12:40:15.129Z,98936.34
2019-05-29T12:42:45.151Z,98929.44
2019-05-29T12:45:14.497Z,98936.56
2019-05-29T12:47:43.567Z,98941.45
2019-05-29T12:50:13.822Z,98933.77
2019-05-29T12:52:43.001Z,98937.12
2019-05-29T12:55:15.317Z,98923.96
2019-05-29T12:57:44.357Z,98927.47
2019-05-29T13:00:15.712Z,98921.20
2019-05-29T13:02:44.855Z,98926.52
2019-05-29T13:05:20.137Z,98925.16
2019-05-29T13:07:45.496Z,98914.92
2019-05-29T13:10:30.003Z,98914.92
2019-05-29T13:12:48.064Z,98910.45
2019-05-29T13:15:18.071Z,98909.76
2019-05-29T13:17:47.155Z,98905.12
2019-05-29T13:20:21.772Z,98901.09
2019-05-29T13:22:48.463Z,98901.34
2019-05-29T13:25:17.623Z,98906.63
2019-05-29T13:27:46.689Z,98896.44
2019-05-29T13:30:17.134Z,98895.00
2019-05-29T13:32:46.319Z,98897.36
2019-05-29T13:35:15.456Z,98886.69
2019-05-29T13:37:44.539Z,98890.34
2019-05-29T13:40:14.028Z,98887.91
2019-05-29T13:42:43.089Z,98892.30
2019-05-29T13:45:18.462Z,98884.28
2019-05-29T13:47:44.853Z,98884.86
2019-05-29T13:50:14.500Z,98878.82
2019-05-29T13:52:43.624Z,98875.58
2019-05-29T13:55:14.496Z,98878.51
2019-05-29T13:57:43.645Z,98874.98
2019-05-29T14:00:34.409Z,98880.05
2019-05-29T14:02:46.256Z,98877.22
2019-05-29T14:05:16.377Z,98873.69
2019-05-29T14:07:45.451Z,98872.73
2019-05-29T14:10:16.011Z,98873.92
2019-05-29T14:12:45.090Z,98871.91
2019-05-29T14:15:14.514Z,98872.63
2019-05-29T14:17:43.602Z,98871.33
2019-05-29T14:20:13.175Z,98872.60
2019-05-29T14:22:42.212Z,98877.83
2019-05-29T14:25:13.237Z,98882.10
2019-05-29T14:27:42.433Z,98884.30
2019-05-29T14:30:14.032Z,98879.09
2019-05-29T14:32:43.331Z,98875.47
2019-05-29T14:35:13.369Z,98870.14
2019-05-29T14:37:42.575Z,98870.61
2019-05-29T14:40:12.319Z,98874.48
2019-05-29T14:42:41.388Z,98872.85
2019-05-29T14:45:12.390Z,98868.92
2019-05-29T14:47:41.746Z,98870.79
2019-05-29T14:50:13.475Z,98873.72
2019-05-29T14:52:42.566Z,98875.03
2019-05-29T14:55:16.137Z,98869.38
2019-05-29T14:57:42.882Z,98874.16
2019-05-29T15:00:23.176Z,98874.19
2019-05-29T15:02:44.887Z,98869.81
2019-05-29T15:05:15.100Z,98873.98
2019-05-29T15:07:44.308Z,98864.27
2019-05-29T15:10:24.936Z,98863.39
2019-05-29T15:12:44.962Z,98868.23
2019-05-29T15:15:16.526Z,98862.80
2019-05-29T15:17:45.637Z,98862.49
2019-05-29T15:20:16.829Z,98865.79
2019-05-29T15:22:46.132Z,98867.15
2019-05-29T15:25:24.026Z,98865.99
2019-05-29T15:27:48.924Z,98859.93
2019-05-29T15:30:23.013Z,98863.41
2019-05-29T15:32:49.438Z,98868.34
2019-05-29T15:35:20.116Z,98866.08
2019-05-29T15:37:49.406Z,98864.91
2019-05-29T15:40:18.485Z,98855.83
2019-05-29T15:42:47.610Z,98870.64
2019-05-29T15:45:18.166Z,98863.40
2019-05-29T15:47:47.488Z,98862.92
2019-05-29T15:50:18.008Z,98867.26
2019-05-29T15:52:47.207Z,98869.09
2019-05-29T15:55:28.543Z,98870.98
2019-05-29T15:57:47.410Z,98869.47
2019-05-29T16:00:17.842Z,98874.66
2019-05-29T16:02:48.839Z,98874.53
2019-05-29T16:05:19.224Z,98878.67
2019-05-29T16:07:48.508Z,98879.30
2019-05-29T16:10:20.872Z,98882.63
2019-05-29T16:12:49.897Z,98882.00
2019-05-29T16:15:19.686Z,98889.30
2019-05-29T16:17:48.941Z,98898.45
2019-05-29T16:20:18.556Z,98901.77
2019-05-29T16:22:47.919Z,98910.48
2019-05-29T16:25:17.531Z,98904.88
2019-05-29T16:27:46.721Z,98904.73
2019-05-29T16:30:18.127Z,98900.48
2019-05-29T16:32:47.255Z,98896.16
2019-05-29T16:35:17.221Z,98892.55
2019-05-29T16:37:46.338Z,98906.67
2019-05-29T16:40:18.160Z,98910.91
2019-05-29T16:42:47.465Z,98909.13
2019-05-29T16:45:18.319Z,98903.41
2019-05-29T16:47:47.654Z,98909.31
2019-05-29T16:50:19.392Z,98923.00
2019-05-29T16:52:48.935Z,98927.08
2019-05-29T16:55:19.391Z,98931.01
2019-05-29T16:57:48.715Z,98935.86
2019-05-29T17:00:19.874Z,98942.65
2019-05-29T17:02:48.995Z,98954.98
2019-05-29T17:05:18.302Z,98950.87
2019-05-29T17:07:47.394Z,98948.92
2019-05-29T17:10:16.628Z,98948.73
2019-05-29T17:12:45.767Z,98949.27
2019-05-29T17:15:17.116Z,98949.81
2019-05-29T17:17:46.491Z,98953.70
2019-05-29T17:20:17.184Z,98954.58
2019-05-29T17:22:46.332Z,98950.86
2019-05-29T17:25:16.722Z,98955.38
2019-05-29T17:27:45.996Z,98952.49
2019-05-29T17:30:18.821Z,98947.50
2019-05-29T17:32:48.090Z,98946.48
2019-05-29T17:35:17.367Z,98946.12
2019-05-29T17:37:46.489Z,98939.41
2019-05-29T17:40:16.920Z,98942.61
2019-05-29T17:42:46.175Z,98942.61
2019-05-29T17:45:19.528Z,98935.20
2019-05-29T17:47:46.673Z,98938.68
2019-05-29T17:50:19.876Z,98953.06
2019-05-29T17:52:46.797Z,98963.97
2019-05-29T17:55:19.961Z,98971.48
2019-05-29T17:57:49.523Z,98971.48
2019-05-29T18:00:20.749Z,98968.27
2019-05-29T18:02:52.378Z,98971.44
2019-05-29T18:05:20.908Z,98971.44
2019-05-29T18:07:50.075Z,98972.08
2019-05-29T18:10:22.474Z,98984.06
2019-05-29T18:12:52.190Z,98998.67
2019-05-29T18:15:21.867Z,99006.41
2019-05-29T18:17:51.317Z,99019.66
2019-05-29T18:20:21.703Z,99024.83
2019-05-29T18:22:51.206Z,99027.28
2019-05-29T18:25:21.811Z,99015.00
2019-05-29T18:27:51.367Z,99017.47
2019-05-29T18:30:20.734Z,99015.98
2019-05-29T18:32:49.802Z,99015.98
2019-05-29T18:35:19.111Z,99023.31
2019-05-29T18:37:48.630Z,99044.68
2019-05-29T18:40:20.229Z,99051.97
2019-05-29T18:42:49.795Z,99056.06
2019-05-29T18:45:22.393Z,99056.06
2019-05-29T18:47:50.411Z,99050.19
2019-05-29T18:50:19.863Z,99050.19
2019-05-29T18:52:49.307Z,99040.36
2019-05-29T18:55:19.008Z,99044.44
2019-05-29T18:57:48.455Z,99061.72
2019-05-29T19:00:21.169Z,99070.01
2019-05-29T19:02:50.741Z,99070.01
2019-05-29T19:05:21.460Z,99096.36
2019-05-29T19:07:51.019Z,99096.36
2019-05-29T19:10:21.601Z,99085.48
2019-05-29T19:12:51.642Z,99098.54
2019-05-29T19:15:21.911Z,99098.54
2019-05-29T19:17:51.413Z,99108.34
2019-05-29T19:20:22.174Z,99125.31
2019-05-29T19:22:51.688Z,99136.66
2019-05-29T19:25:22.542Z,99138.69
2019-05-29T19:27:52.557Z,99127.62
2019-05-29T19:30:23.046Z,99127.62
2019-05-29T19:32:52.526Z,99153.81
2019-05-29T19:35:23.384Z,99151.95
2019-05-29T19:37:53.486Z,99151.95
2019-05-29T19:40:24.035Z,99146.62
2019-05-29T19:42:54.694Z,99146.03
2019-05-29T19:45:24.696Z,99154.33
2019-05-29T19:47:54.182Z,99154.33
2019-05-29T19:50:24.675Z,99156.65
2019-05-29T19:52:54.098Z,99175.23
2019-05-29T19:55:23.534Z,99175.23
2019-05-29T19:57:56.525Z,99164.38
2019-05-29T20:00:24.170Z,99164.16
2019-05-29T20:02:53.321Z,99153.41
2019-05-29T20:05:22.788Z,99153.41
2019-05-29T20:07:52.237Z,99152.58
2019-05-29T20:10:21.648Z,99157.46
2019-05-29T20:12:51.034Z,99166.86
2019-05-29T20:15:20.585Z,99166.86
2019-05-29T20:17:50.020Z,99175.20
2019-05-29T20:20:19.540Z,99178.93
2019-05-29T20:22:48.985Z,99185.29
2019-05-29T20:25:18.436Z,99196.31
2019-05-29T20:27:47.798Z,99205.83
2019-05-29T20:30:18.745Z,99209.66
2019-05-29T20:32:48.377Z,99210.70
2019-05-29T20:35:18.062Z,99213.03
2019-05-29T20:37:47.459Z,99212.68
2019-05-29T20:40:17.141Z,99216.02
2019-05-29T20:42:46.492Z,99213.83
2019-05-29T20:45:17.026Z,99222.23
2019-05-29T20:47:46.387Z,99227.09
2019-05-29T20:50:15.927Z,99222.75
2019-05-29T20:52:45.309Z,99224.44
2019-05-29T20:55:14.928Z,99229.13
2019-05-29T20:57:44.361Z,99227.94
2019-05-29T21:00:16.590Z,99231.47
2019-05-29T21:02:46.011Z,99236.31
2019-05-29T21:05:15.864Z,99239.45
2019-05-29T21:07:45.266Z,99232.63
2019-05-29T21:10:14.840Z,99232.80
2019-05-29T21:12:47.467Z,99233.28
2019-05-29T21:15:15.491Z,99235.80
2019-05-29T21:17:44.868Z,99237.81
2019-05-29T21:20:14.539Z,99240.16
2019-05-29T21:22:44.955Z,99247.81
2019-05-29T21:25:18.922Z,99250.67
2019-05-29T21:27:49.196Z,99261.02
2019-05-29T21:30:19.874Z,99261.34
2019-05-29T21:32:49.278Z,99266.69
2019-05-29T21:35:18.650Z,99266.84
2019-05-29T21:37:48.613Z,99275.52
2019-05-29T21:40:18.939Z,99275.36
2019-05-29T21:42:48.309Z,99284.17
2019-05-29T21:45:17.776Z,99285.18
2019-05-29T21:47:47.333Z,99283.48
2019-05-29T21:50:16.688Z,99284.34
2019-05-29T21:52:46.086Z,99277.98
2019-05-29T21:55:15.724Z,99284.81
2019-05-29T21:57:48.368Z,99284.97
2019-05-29T22:00:22.311Z,99292.48
2019-05-29T22:02:51.835Z,99288.16
2019-05-29T22:05:21.784Z,99284.78
2019-05-29T22:07:51.246Z,99281.58
2019-05-29T22:10:20.684Z,99277.40
2019-05-29T22:12:50.378Z,99282.09
2019-05-29T22:15:19.843Z,99284.70
2019-05-29T22:17:49.232Z,99293.00
2019-05-29T22:20:18.607Z,99291.98
2019-05-29T22:22:48.044Z,99288.63
2019-05-29T22:25:17.462Z,99294.66
2019-05-29T22:27:46.920Z,99292.67
2019-05-29T22:30:16.449Z,99295.16
2019-05-29T22:32:45.822Z,99294.69
2019-05-29T22:35:16.355Z,99295.02
2019-05-29T22:37:45.792Z,99288.88
2019-05-29T22:40:15.272Z,99287.72
2019-05-29T22:42:44.698Z,99289.38
2019-05-29T22:45:14.091Z,99286.03
2019-05-29T22:47:43.548Z,99286.00
2019-05-29T22:50:13.327Z,99286.14
2019-05-29T22:52:42.713Z,99284.67
2019-05-29T22:55:12.188Z,99283.95
2019-05-29T22:57:41.637Z,99291.27
2019-05-29T23:00:12.808Z,99289.39
2019-05-29T23:02:42.249Z,99293.53
2019-05-29T23:05:11.660Z,99293.20
2019-05-29T23:07:41.053Z,99294.50
2019-05-29T23:10:11.468Z,99287.47
2019-05-29T23:12:40.845Z,99292.16
2019-05-29T23:15:10.407Z,99293.45
2019-05-29T23:17:39.782Z,99295.42
2019-05-29T23:20:09.312Z,99297.77
2019-05-29T23:22:38.715Z,99301.68
2019-05-29T23:25:08.299Z,99300.02
2019-05-29T23:27:37.747Z,99304.30
2019-05-29T23:30:11.936Z,99296.59
2019-05-29T23:32:41.311Z,99294.88
2019-05-29T23:35:10.772Z,99304.32
2019-05-29T23:37:40.280Z,99309.48
2019-05-29T23:40:10.159Z,99306.42
2019-05-29T23:42:39.537Z,99309.20
2019-05-29T23:45:08.892Z,99311.32
2019-05-29T23:47:38.333Z,99312.47
2019-05-29T23:50:08.063Z,99311.61
2019-05-29T23:52:37.815Z,99319.34
2019-05-29T23:55:10.236Z,99315.30
2019-05-29T23:57:39.596Z,99318.70
